createdAt,value
2018-04-13T00:02:03.901Z,15.87
2018-04-13T00:04:31.537Z,14.27
2018-04-13T00:06:59.212Z,13.77
2018-04-13T00:09:26.889Z,14.30
2018-04-13T00:11:54.515Z,16.60
2018-04-13T00:14:22.913Z,18.13
2018-04-13T00:16:50.592Z,20.63
2018-04-13T00:19:18.199Z,21.60
2018-04-13T00:21:45.880Z,21.87
2018-04-13T00:24:13.494Z,22.70
2018-04-13T00:26:41.984Z,21.60
2018-04-13T00:29:09.647Z,21.53
2018-04-13T00:31:37.320Z,18.00
2018-04-13T00:34:05.000Z,18.37
2018-04-13T00:36:32.649Z,17.33
2018-04-13T00:39:00.256Z,18.30
2018-04-13T00:41:27.940Z,18.17
2018-04-13T00:43:55.689Z,17.10
2018-04-13T00:46:23.360Z,17.60
2018-04-13T00:48:50.972Z,17.83
2018-04-13T00:51:18.928Z,18.23
2018-04-13T00:53:46.543Z,16.77
2018-04-13T00:56:14.247Z,16.20
2018-04-13T00:58:42.652Z,19.17
2018-04-13T01:01:10.279Z,19.67
2018-04-13T01:03:37.954Z,18.30
2018-04-13T01:06:05.701Z,17.40
2018-04-13T01:08:33.378Z,19.13
2018-04-13T01:11:01.008Z,19.23
2018-04-13T01:13:28.727Z,19.47
2018-04-13T01:15:56.358Z,19.20
2018-04-13T01:18:24.035Z,17.70
2018-04-13T01:20:51.716Z,18.70
2018-04-13T01:23:19.327Z,18.60
2018-04-13T01:25:46.944Z,18.17
2018-04-13T01:28:14.699Z,16.67
2018-04-13T01:30:42.304Z,16.60
2018-04-13T01:33:09.916Z,17.47
2018-04-13T01:35:37.937Z,17.83
2018-04-13T01:38:05.573Z,16.00
2018-04-13T01:40:33.267Z,15.53
2018-04-13T01:43:00.951Z,16.83
2018-04-13T01:45:28.653Z,15.33
2018-04-13T01:47:56.353Z,15.27
2018-04-13T01:50:24.012Z,19.43
2018-04-13T01:52:51.670Z,21.60
2018-04-13T01:55:19.352Z,21.33
2018-04-13T01:57:47.020Z,21.83
2018-04-13T02:00:14.857Z,17.27
2018-04-13T02:02:42.480Z,17.60
2018-04-13T02:05:10.520Z,17.23
2018-04-13T02:07:38.168Z,17.93
2018-04-13T02:10:05.829Z,16.57
2018-04-13T02:12:33.561Z,15.27
2018-04-13T02:15:01.237Z,16.43
2018-04-13T02:17:28.871Z,14.53
2018-04-13T02:19:56.839Z,14.03
2018-04-13T02:22:24.435Z,13.97
2018-04-13T02:24:52.019Z,13.90
2018-04-13T02:27:19.749Z,15.43
2018-04-13T02:29:47.407Z,15.67
2018-04-13T02:32:15.053Z,15.53
2018-04-13T02:34:42.811Z,17.37
2018-04-13T02:37:10.492Z,20.63
2018-04-13T02:39:38.096Z,20.80
2018-04-13T02:42:05.758Z,20.13
2018-04-13T02:44:33.409Z,18.27
2018-04-13T02:47:01.005Z,17.90
2018-04-13T02:49:28.737Z,17.23
2018-04-13T02:51:56.419Z,17.07
2018-04-13T02:54:24.017Z,15.30
2018-04-13T02:56:51.887Z,16.60
2018-04-13T02:59:19.492Z,18.67
2018-04-13T03:01:48.298Z,19.77
2018-04-13T03:04:15.945Z,21.13
2018-04-13T03:06:43.530Z,20.70
2018-04-13T03:09:11.219Z,20.57
2018-04-13T03:11:38.878Z,20.13
2018-04-13T03:14:06.476Z,20.73
2018-04-13T03:16:34.101Z,21.00
2018-04-13T03:19:01.740Z,20.20
2018-04-13T03:21:29.343Z,20.17
2018-04-13T03:23:57.052Z,19.80
2018-04-13T03:26:24.852Z,20.33
2018-04-13T03:28:52.440Z,18.90
2018-04-13T03:31:20.045Z,19.00
2018-04-13T03:33:47.671Z,19.23
2018-04-13T03:36:15.261Z,19.00
2018-04-13T03:38:42.904Z,18.87
2018-04-13T03:41:10.609Z,18.80
2018-04-13T03:43:38.236Z,18.73
2018-04-13T03:46:05.852Z,16.57
2018-04-13T03:48:33.485Z,16.33
2018-04-13T03:51:01.062Z,16.23
2018-04-13T03:53:28.704Z,17.50
2018-04-13T03:55:56.342Z,18.27
2018-04-13T03:58:24.000Z,17.47
2018-04-13T04:00:51.648Z,16.93
2018-04-13T04:03:20.512Z,16.67
2018-04-13T04:05:48.120Z,16.80
2018-04-13T04:08:15.728Z,15.67
2018-04-13T04:10:44.252Z,15.27
2018-04-13T04:13:11.940Z,16.50
2018-04-13T04:15:39.524Z,17.97
2018-04-13T04:18:07.176Z,18.10
2018-04-13T04:20:46.515Z,16.73
2018-04-13T04:23:25.803Z,17.57
2018-04-13T04:26:05.186Z,17.97
2018-04-13T04:28:32.819Z,18.63
2018-04-13T04:31:00.465Z,17.20
2018-04-13T04:33:28.043Z,16.67
2018-04-13T04:35:55.896Z,17.70
2018-04-13T04:38:23.531Z,16.63
2018-04-13T04:40:51.146Z,18.67
2018-04-13T04:43:18.796Z,17.57
2018-04-13T04:45:46.472Z,17.60
2018-04-13T04:48:14.055Z,18.27
2018-04-13T04:50:41.700Z,18.13
2018-04-13T04:53:09.285Z,18.07
2018-04-13T04:55:36.863Z,18.40
2018-04-13T04:58:04.573Z,20.83
2018-04-13T05:00:32.196Z,19.87
2018-04-13T05:02:59.780Z,19.13
2018-04-13T05:05:27.561Z,21.40
2018-04-13T05:07:55.153Z,19.83
2018-04-13T05:10:22.760Z,21.57
2018-04-13T05:12:50.703Z,18.27
2018-04-13T05:15:18.311Z,17.70
2018-04-13T05:17:45.899Z,17.03
2018-04-13T05:20:13.592Z,16.13
2018-04-13T05:22:41.274Z,15.20
2018-04-13T05:25:08.867Z,15.27
2018-04-13T05:27:36.624Z,15.40
2018-04-13T05:30:04.333Z,16.97
2018-04-13T05:32:31.935Z,16.87
2018-04-13T05:34:59.643Z,14.83
2018-04-13T05:37:27.241Z,15.60
2018-04-13T05:39:54.886Z,17.30
2018-04-13T05:42:22.520Z,18.40
2018-04-13T05:44:50.100Z,18.50
2018-04-13T05:47:17.693Z,18.40
2018-04-13T05:49:45.383Z,18.47
2018-04-13T05:52:13.029Z,18.83
2018-04-13T05:54:40.616Z,19.23
2018-04-13T05:57:08.537Z,19.07
2018-04-13T05:59:36.127Z,18.93
2018-04-13T06:02:03.748Z,19.37
2018-04-13T06:04:31.470Z,20.77
2018-04-13T06:07:00.140Z,19.90
2018-04-13T06:09:27.796Z,19.93
2018-04-13T06:11:55.464Z,20.73
2018-04-13T06:14:23.098Z,24.67
2018-04-13T06:16:50.751Z,23.20
2018-04-13T06:19:18.400Z,22.00
2018-04-13T06:21:46.048Z,22.40
2018-04-13T06:24:13.705Z,23.10
2018-04-13T06:26:41.533Z,22.57
2018-04-13T06:29:09.188Z,23.53
2018-04-13T06:31:36.805Z,24.90
2018-04-13T06:34:04.469Z,25.13
2018-04-13T06:36:32.095Z,26.23
2018-04-13T06:38:59.719Z,25.13
2018-04-13T06:41:27.367Z,25.40
2018-04-13T06:43:55.004Z,26.97
2018-04-13T06:46:22.613Z,27.73
2018-04-13T06:48:50.371Z,25.97
2018-04-13T06:51:17.975Z,26.73
2018-04-13T06:53:45.583Z,26.07
2018-04-13T06:56:13.260Z,26.57
2018-04-13T06:58:40.930Z,26.37
2018-04-13T07:01:08.586Z,28.33
2018-04-13T07:03:36.301Z,25.10
2018-04-13T07:06:03.900Z,26.83
2018-04-13T07:08:31.600Z,27.43
2018-04-13T07:11:00.744Z,26.50
2018-04-13T07:13:28.328Z,26.97
2018-04-13T07:15:55.917Z,27.13
2018-04-13T07:18:23.616Z,25.37
2018-04-13T07:20:51.280Z,25.40
2018-04-13T07:23:18.924Z,24.17
2018-04-13T07:25:46.626Z,25.00
2018-04-13T07:28:14.204Z,26.07
2018-04-13T07:30:41.813Z,24.50
2018-04-13T07:33:09.787Z,25.90
2018-04-13T07:35:37.320Z,25.27
2018-04-13T07:38:04.909Z,26.83
2018-04-13T07:40:32.770Z,25.17
2018-04-13T07:43:00.367Z,25.17
2018-04-13T07:45:27.959Z,25.87
2018-04-13T07:47:55.646Z,25.77
2018-04-13T07:50:23.243Z,25.57
2018-04-13T07:52:50.821Z,26.20
2018-04-13T07:55:18.522Z,27.00
2018-04-13T07:57:46.107Z,26.43
2018-04-13T08:00:13.758Z,27.13
2018-04-13T08:02:41.417Z,26.97
2018-04-13T08:05:09.068Z,26.60
2018-04-13T08:07:36.731Z,26.03
2018-04-13T08:10:04.614Z,23.80
2018-04-13T08:12:32.399Z,27.33
2018-04-13T08:15:00.588Z,28.80
2018-04-13T08:17:27.590Z,27.93
2018-04-13T08:19:56.085Z,23.07
2018-04-13T08:22:23.729Z,22.80
2018-04-13T08:24:51.429Z,21.20
2018-04-13T08:27:19.084Z,20.17
2018-04-13T08:29:46.689Z,19.93
2018-04-13T08:32:14.328Z,18.93
2018-04-13T08:34:41.984Z,18.30
2018-04-13T08:37:09.568Z,19.57
2018-04-13T08:39:37.287Z,19.90
2018-04-13T08:42:04.976Z,19.23
2018-04-13T08:44:33.424Z,18.77
2018-04-13T08:47:01.050Z,17.90
2018-04-13T08:49:29.210Z,17.87
2018-04-13T08:51:56.846Z,17.67
2018-04-13T08:54:24.499Z,18.47
2018-04-13T08:56:52.133Z,18.37
2018-04-13T08:59:19.785Z,19.40
2018-04-13T09:01:47.449Z,28.53
2018-04-13T09:04:15.100Z,18.40
2018-04-13T09:06:42.718Z,19.20
2018-04-13T09:09:10.345Z,19.23
2018-04-13T09:11:38.069Z,19.50
2018-04-13T09:14:05.687Z,19.37
2018-04-13T09:16:33.380Z,19.70
2018-04-13T09:19:01.373Z,17.83
2018-04-13T09:21:28.969Z,18.87
2018-04-13T09:23:56.663Z,19.20
2018-04-13T09:26:24.333Z,19.07
2018-04-13T09:28:51.992Z,20.67
2018-04-13T09:31:19.757Z,18.53
2018-04-13T09:33:47.389Z,17.87
2018-04-13T09:36:14.986Z,17.63
2018-04-13T09:38:42.624Z,16.80
2018-04-13T09:41:10.257Z,17.07
2018-04-13T09:43:37.852Z,16.33
2018-04-13T09:46:05.512Z,17.80
2018-04-13T09:48:33.132Z,20.03
2018-04-13T09:51:00.814Z,18.00
2018-04-13T09:53:28.818Z,18.37
2018-04-13T09:55:56.476Z,19.97
2018-04-13T09:58:24.145Z,18.13
2018-04-13T10:00:57.425Z,14.97
2018-04-13T10:03:25.069Z,17.77
2018-04-13T10:05:52.717Z,16.77
2018-04-13T10:08:20.356Z,16.13
2018-04-13T10:10:48.012Z,17.43
2018-04-13T10:13:16.082Z,16.20
2018-04-13T10:15:43.768Z,14.90
2018-04-13T10:18:11.407Z,14.63
2018-04-13T10:20:39.050Z,16.73
2018-04-13T10:23:06.872Z,14.93
2018-04-13T10:25:34.464Z,14.60
2018-04-13T10:28:02.051Z,14.13
2018-04-13T10:30:29.958Z,14.30
2018-04-13T10:32:57.548Z,13.97
2018-04-13T10:35:25.373Z,11.83
2018-04-13T10:37:53.035Z,12.03
2018-04-13T10:40:20.864Z,11.77
2018-04-13T10:42:48.448Z,12.50
2018-04-13T10:45:16.092Z,12.53
2018-04-13T10:47:43.679Z,12.67
2018-04-13T10:50:11.315Z,11.37
2018-04-13T10:52:39.013Z,10.20
2018-04-13T10:55:06.623Z,10.45
2018-04-13T10:57:34.215Z,9.93
2018-04-13T11:00:01.976Z,10.50
2018-04-13T11:02:29.584Z,10.73
2018-04-13T11:04:57.201Z,10.50
2018-04-13T11:07:25.105Z,9.60
2018-04-13T11:09:52.683Z,9.83
2018-04-13T11:12:20.337Z,9.53
2018-04-13T11:14:48.115Z,11.13
2018-04-13T11:17:15.705Z,10.90
2018-04-13T11:19:43.346Z,10.07
2018-04-13T11:22:10.988Z,10.60
2018-04-13T11:24:38.596Z,10.27
2018-04-13T11:27:06.196Z,9.20
2018-04-13T11:29:33.845Z,10.47
2018-04-13T11:32:01.435Z,10.87
2018-04-13T11:34:29.076Z,11.13
2018-04-13T11:36:57.049Z,10.80
2018-04-13T11:39:24.690Z,10.13
2018-04-13T11:41:52.277Z,9.60
2018-04-13T11:44:19.911Z,9.20
2018-04-13T11:46:47.508Z,9.43
2018-04-13T11:49:15.125Z,9.18
2018-04-13T11:51:42.922Z,9.00
2018-04-13T11:54:10.559Z,8.77
2018-04-13T11:56:38.152Z,7.87
2018-04-13T11:59:05.902Z,7.43
2018-04-13T12:01:33.623Z,7.50
2018-04-13T12:04:01.213Z,7.28
2018-04-13T12:06:28.878Z,7.18
2018-04-13T12:08:56.527Z,12.82
2018-04-13T12:11:24.557Z,7.47
2018-04-13T12:13:52.264Z,6.93
2018-04-13T12:16:19.968Z,7.85
2018-04-13T12:18:47.545Z,8.13
2018-04-13T12:21:15.228Z,7.78
2018-04-13T12:23:42.883Z,8.00
2018-04-13T12:26:10.481Z,7.62
2018-04-13T12:28:38.937Z,7.85
2018-04-13T12:31:06.537Z,7.68
2018-04-13T12:33:34.128Z,7.87
2018-04-13T12:36:01.914Z,7.80
2018-04-13T12:38:29.499Z,7.72
2018-04-13T12:40:57.101Z,8.50
2018-04-13T12:43:24.737Z,8.20
2018-04-13T12:45:52.448Z,8.32
2018-04-13T12:48:20.037Z,8.05
2018-04-13T12:50:47.677Z,6.60
2018-04-13T12:53:15.993Z,13.70
2018-04-13T12:55:45.525Z,7.90
2018-04-13T12:58:13.480Z,6.85
2018-04-13T13:00:41.125Z,7.85
2018-04-13T13:03:08.768Z,7.12
2018-04-13T13:05:36.557Z,6.60
2018-04-13T13:08:04.140Z,8.20
2018-04-13T13:10:31.741Z,7.03
2018-04-13T13:12:59.399Z,7.07
2018-04-13T13:15:26.988Z,7.05
2018-04-13T13:17:54.668Z,6.90
2018-04-13T13:20:22.359Z,7.23
2018-04-13T13:22:50.004Z,7.20
2018-04-13T13:25:17.605Z,8.13
2018-04-13T13:27:45.309Z,7.93
2018-04-13T13:30:12.984Z,8.47
2018-04-13T13:32:40.578Z,8.30
2018-04-13T13:35:08.212Z,8.30
2018-04-13T13:37:35.797Z,6.70
2018-04-13T13:40:04.068Z,7.68
2018-04-13T13:42:31.753Z,7.75
2018-04-13T13:44:59.367Z,8.30
2018-04-13T13:47:26.953Z,7.35
2018-04-13T13:49:54.638Z,7.18
2018-04-13T13:52:22.313Z,6.80
2018-04-13T13:54:49.932Z,7.07
2018-04-13T13:57:17.720Z,5.72
2018-04-13T13:59:45.340Z,6.47
2018-04-13T14:02:12.963Z,6.93
2018-04-13T14:04:40.889Z,8.10
2018-04-13T14:07:08.534Z,7.07
2018-04-13T14:09:36.129Z,8.80
2018-04-13T14:12:06.708Z,7.13
2018-04-13T14:14:34.305Z,6.93
2018-04-13T14:17:01.918Z,7.07
2018-04-13T14:19:29.813Z,7.47
2018-04-13T14:21:57.441Z,7.17
2018-04-13T14:24:25.032Z,7.33
2018-04-13T14:26:52.686Z,7.67
2018-04-13T14:29:20.346Z,7.57
2018-04-13T14:31:47.987Z,7.10
2018-04-13T14:34:15.697Z,7.23
2018-04-13T14:39:25.462Z,7.10
2018-04-13T14:41:53.152Z,7.53
2018-04-13T14:44:20.804Z,7.17
2018-04-13T14:46:48.506Z,7.30
2018-04-13T14:49:16.152Z,7.67
2018-04-13T14:51:43.794Z,7.13
2018-04-13T14:54:11.428Z,7.60
2018-04-13T14:56:39.020Z,7.40
2018-04-13T14:59:06.688Z,7.53
2018-04-13T15:01:34.320Z,7.67
2018-04-13T15:04:01.957Z,9.37
2018-04-13T15:06:29.544Z,8.70
2018-04-13T15:08:57.198Z,7.97
2018-04-13T15:11:27.591Z,8.90
2018-04-13T15:13:55.207Z,8.20
2018-04-13T15:16:23.117Z,9.27
2018-04-13T15:18:50.767Z,7.60
2018-04-13T15:21:18.514Z,7.37
2018-04-13T15:23:46.168Z,7.83
2018-04-13T15:26:13.758Z,7.97
2018-04-13T15:28:41.338Z,8.60
2018-04-13T15:31:09.075Z,8.13
2018-04-13T15:33:36.676Z,8.27
2018-04-13T15:36:04.298Z,8.30
2018-04-13T15:38:32.098Z,7.83
2018-04-13T15:40:59.827Z,8.50
2018-04-13T15:43:27.391Z,9.33
2018-04-13T15:45:55.080Z,8.60
2018-04-13T15:48:22.723Z,8.67
2018-04-13T15:50:50.296Z,9.17
2018-04-13T15:53:17.944Z,9.50
2018-04-13T15:55:45.625Z,9.00
2018-04-13T15:58:13.217Z,8.37
2018-04-13T16:00:40.864Z,8.20
2018-04-13T16:03:08.536Z,9.23
2018-04-13T16:05:36.173Z,9.23
2018-04-13T16:08:03.982Z,8.77
2018-04-13T16:10:31.958Z,13.57
2018-04-13T16:12:59.532Z,9.53
2018-04-13T16:15:27.172Z,15.50
2018-04-13T16:17:54.824Z,10.60
2018-04-13T16:20:22.486Z,9.30
2018-04-13T16:22:50.265Z,9.20
2018-04-13T16:25:17.851Z,9.77
2018-04-13T16:27:45.504Z,10.37
2018-04-13T16:30:13.289Z,11.00
2018-04-13T16:32:41.707Z,10.10
2018-04-13T16:35:09.400Z,10.33
2018-04-13T16:37:37.102Z,10.70
2018-04-13T16:40:04.752Z,10.43
2018-04-13T16:42:32.391Z,10.50
2018-04-13T16:45:00.185Z,10.70
2018-04-13T16:47:27.771Z,10.27
2018-04-13T16:49:55.439Z,10.87
2018-04-13T16:52:23.220Z,10.87
2018-04-13T16:54:50.825Z,11.10
2018-04-13T16:57:18.403Z,11.17
2018-04-13T16:59:46.052Z,10.53
2018-04-13T17:02:13.701Z,11.50
2018-04-13T17:04:41.295Z,10.73
2018-04-13T17:07:08.973Z,10.10
2018-04-13T17:09:36.640Z,10.63
2018-04-13T17:12:04.249Z,11.80
2018-04-13T17:14:31.880Z,11.63
2018-04-13T17:16:59.533Z,11.77
2018-04-13T17:19:27.151Z,11.83
2018-04-13T17:21:54.872Z,11.37
2018-04-13T17:24:22.747Z,11.87
2018-04-13T17:26:50.412Z,11.60
2018-04-13T17:29:18.214Z,12.30
2018-04-13T17:31:45.848Z,12.50
2018-04-13T17:34:13.431Z,12.90
2018-04-13T17:36:41.072Z,13.50
2018-04-13T17:39:08.651Z,13.30
2018-04-13T17:41:36.301Z,16.90
2018-04-13T17:44:03.943Z,14.47
2018-04-13T17:46:31.532Z,14.07
2018-04-13T17:48:59.140Z,12.97
2018-04-13T17:51:26.768Z,13.00
2018-04-13T17:53:54.360Z,13.27
2018-04-13T17:56:21.951Z,14.37
2018-04-13T17:58:49.612Z,14.80
2018-04-13T18:01:17.208Z,14.47
2018-04-13T18:03:44.866Z,13.23
2018-04-13T18:06:12.651Z,12.80
2018-04-13T18:08:40.226Z,14.87
2018-04-13T18:11:07.821Z,12.87
2018-04-13T18:13:36.375Z,13.20
2018-04-13T18:16:04.009Z,14.17
2018-04-13T18:18:31.593Z,13.97
2018-04-13T18:20:59.248Z,13.17
2018-04-13T18:23:26.981Z,17.70
2018-04-13T18:25:54.635Z,12.57
2018-04-13T18:28:22.274Z,11.63
2018-04-13T18:30:49.915Z,10.83
2018-04-13T18:33:17.520Z,11.07
2018-04-13T18:35:45.212Z,11.90
2018-04-13T18:38:12.807Z,10.97
2018-04-13T18:40:40.389Z,12.53
2018-04-13T18:43:08.093Z,11.93
2018-04-13T18:45:35.723Z,11.17
2018-04-13T18:48:03.315Z,12.00
2018-04-13T18:50:30.976Z,16.13
2018-04-13T18:52:58.892Z,17.40
2018-04-13T18:55:26.476Z,18.70
2018-04-13T18:57:54.287Z,16.13
2018-04-13T19:00:21.892Z,14.80
2018-04-13T19:02:49.540Z,13.30
2018-04-13T19:05:17.158Z,13.43
2018-04-13T19:07:44.727Z,14.67
2018-04-13T19:10:12.373Z,15.98
2018-04-13T19:12:40.096Z,14.13
2018-04-13T19:15:07.763Z,14.17
2018-04-13T19:17:35.396Z,14.47
2018-04-13T19:20:03.043Z,13.47
2018-04-13T19:22:30.620Z,14.20
2018-04-13T19:24:58.281Z,13.10
2018-04-13T19:27:25.948Z,13.33
2018-04-13T19:29:53.583Z,13.37
2018-04-13T19:32:21.236Z,13.87
2018-04-13T19:34:49.022Z,12.87
2018-04-13T19:37:16.666Z,12.30
2018-04-13T19:39:44.261Z,12.50
2018-04-13T19:42:11.951Z,12.60
2018-04-13T19:44:39.581Z,12.53
2018-04-13T19:47:07.199Z,12.77
2018-04-13T19:49:34.943Z,12.43
2018-04-13T19:52:02.534Z,12.10
2018-04-13T19:54:30.220Z,13.10
2018-04-13T19:56:58.041Z,12.40
2018-04-13T19:59:25.735Z,13.80
2018-04-13T20:01:53.311Z,18.03
2018-04-13T20:04:21.052Z,37.43
2018-04-13T20:06:48.649Z,15.87
2018-04-13T20:09:16.346Z,15.50
2018-04-13T20:11:44.067Z,14.20
2018-04-13T20:14:11.736Z,12.17
2018-04-13T20:16:39.323Z,11.43
2018-04-13T20:19:07.026Z,12.10
2018-04-13T20:21:35.383Z,11.37
2018-04-13T20:24:02.986Z,12.23
2018-04-13T20:26:30.727Z,12.53
2018-04-13T20:28:58.525Z,11.27
2018-04-13T20:31:26.112Z,11.13
2018-04-13T20:33:53.839Z,11.40
2018-04-13T20:36:21.428Z,11.73
2018-04-13T20:38:49.008Z,12.20
2018-04-13T20:41:16.646Z,12.13
2018-04-13T20:43:45.025Z,11.40
2018-04-13T20:46:12.677Z,11.27
2018-04-13T20:48:40.312Z,10.63
2018-04-13T20:51:07.925Z,10.83
2018-04-13T20:53:35.514Z,11.57
2018-04-13T20:56:03.161Z,10.80
2018-04-13T20:58:31.443Z,10.80
2018-04-13T21:00:59.100Z,11.17
2018-04-13T21:03:26.742Z,12.97
2018-04-13T21:05:54.404Z,12.77
2018-04-13T21:08:22.008Z,12.37
2018-04-13T21:10:49.817Z,13.00
2018-04-13T21:13:17.400Z,13.60
2018-04-13T21:15:45.009Z,13.13
2018-04-13T21:18:12.876Z,12.90
2018-04-13T21:20:40.460Z,12.83
2018-04-13T21:23:08.078Z,12.93
2018-04-13T21:25:35.881Z,13.37
2018-04-13T21:28:03.469Z,12.90
2018-04-13T21:30:31.220Z,13.50
2018-04-13T21:32:58.852Z,13.23
2018-04-13T21:35:26.503Z,13.80
2018-04-13T21:37:54.077Z,13.17
2018-04-13T21:40:21.880Z,14.60
2018-04-13T21:42:49.472Z,13.83
2018-04-13T21:45:17.137Z,13.03
2018-04-13T21:47:45.455Z,13.30
2018-04-13T21:50:13.053Z,14.67
2018-04-13T21:52:40.647Z,13.57
2018-04-13T21:55:08.276Z,13.80
2018-04-13T21:57:35.933Z,13.33
2018-04-13T22:00:03.647Z,12.63
2018-04-13T22:02:31.940Z,12.90
2018-04-13T22:04:59.745Z,13.63
2018-04-13T22:07:27.418Z,13.17
2018-04-13T22:09:55.157Z,13.70
2018-04-13T22:12:34.573Z,12.93
2018-04-13T22:15:02.294Z,13.53
2018-04-13T22:17:29.919Z,13.47
2018-04-13T22:19:57.500Z,12.83
2018-04-13T22:22:25.140Z,13.30
2018-04-13T22:24:52.800Z,12.63
2018-04-13T22:27:20.378Z,12.03
2018-04-13T22:29:48.069Z,12.47
2018-04-13T22:32:15.872Z,12.53
2018-04-13T22:34:43.473Z,12.20
2018-04-13T22:37:11.261Z,12.57
2018-04-13T22:39:38.839Z,11.40
2018-04-13T22:42:06.488Z,11.67
2018-04-13T22:44:34.128Z,11.23
2018-04-13T22:47:01.708Z,10.70
2018-04-13T22:49:29.292Z,11.60
2018-04-13T22:51:56.951Z,11.00
2018-04-13T22:54:24.544Z,10.90
2018-04-13T22:56:52.228Z,11.17
2018-04-13T22:59:20.307Z,11.17
2018-04-13T23:01:47.954Z,11.63
2018-04-13T23:04:15.604Z,10.50
2018-04-13T23:06:43.397Z,11.43
2018-04-13T23:09:11.076Z,11.27
2018-04-13T23:11:38.734Z,10.77
2018-04-13T23:14:06.529Z,12.00
2018-04-13T23:16:34.173Z,11.47
2018-04-13T23:19:01.784Z,11.93
2018-04-13T23:21:29.427Z,12.17
2018-04-13T23:23:57.203Z,12.03
2018-04-13T23:26:24.799Z,11.93
2018-04-13T23:28:52.516Z,12.00
2018-04-13T23:31:20.096Z,11.50
2018-04-13T23:33:48.005Z,11.90
2018-04-13T23:36:15.725Z,13.33
2018-04-13T23:38:43.364Z,11.90
2018-04-13T23:41:10.956Z,11.30
2018-04-13T23:43:38.606Z,11.83
2018-04-13T23:46:06.806Z,11.80
2018-04-13T23:48:34.385Z,11.53
2018-04-13T23:51:02.102Z,11.43
2018-04-13T23:53:29.698Z,11.73
2018-04-13T23:55:57.311Z,12.17
2018-04-13T23:58:25.100Z,11.63
